Orlando, Florida
Traffic Map
Current Weather Conditions
Orlando, Florida
Broken Clouds
Broken Clouds
81°
Feels Like: 82°
Wind Chill: 81° Ceiling: 6500
Heat Index: 82° Visibility: 10mi
Dew Point: 61° Wind: 14mph
Humidity: 50% Direction: 100° (E)
Pressure: 30.28in Gusts: 0mph
Raw Report DataKORL 232153Z AUTO 10012KT 10SM BKN065 27/16 A3028 RMK AO2 SLP257 T02720161
Traffic Incident Summary
Active as of:
Severity:
Category:
InformationThere was an issue retrieving the traffic information for this location. Please try a different location or try again shortly.
Advertisements